Steelton, PA (17113)

2:09 PM EDT on August 29, 2016 (GMT -0400)
APRSWXNET | | Change Station

Elev 426 ft 40.23 °N, 76.88 °W | Updated 23 minutes ago

Scattered Clouds
Scattered Clouds
86 °F
Feels Like 89 °F
N
2
Wind Variable Wind from NNE
Gusts 11.0 mph

Today
High -- | Low -- °F
--% Chance of Precip.
Yesterday
High -- | Low -- °F
Precip. -- in
Pressure 30.15 in
Visibility 10.0 miles
Clouds Scattered Clouds 5000 ft
Heat Index 89 °F
Dew Point 67 °F
Humidity 53%
Rainfall in
Snow Depth Not available.
6:32 AM 7:43 PM
Waning Crescent, 7% visible
METAR KCXY 291756Z 33008KT 290V360 10SM SCT050 32/17 A3015 RMK AO2 SLP208 T03220167 10322 20233 56013
Pressure 30.15 in
Visibility 10.0 miles
Clouds Scattered Clouds 5000 ft
Heat Index 89 °F
Dew Point 67 °F
Humidity 53%
Rainfall in
Snow Depth Not available.
6:32 AM 7:43 PM
Waning Crescent, 7% visible
METAR KCXY 291756Z 33008KT 290V360 10SM SCT050 32/17 A3015 RMK AO2 SLP208 T03220167 10322 20233 56013

10-Day Weather Forecast

Almanac

Astronomy

Aug. 29, 2016 Rise Set
Actual Time
Civil Twilight
Nautical Twilight
Astronomical Twilight
Moon
Length of Visible Light
Length of Day
Tomorrow will be .
, % of the Moon is Illuminated

Today's Extremes

State Highs State Lows

Community

WunderPhotos

Upload Photos

1,935,685 photos uploaded!

WunderBlog® & News

Nearby

Air Quality

  Air Quality AQ Index Pollutant
Not available.

Snow Depth

Station Depth Elevation

Earthquake Activity

City Distance Mag. Time & Date
Minimum magnitude displayed is 2.5.

Coastal Water Temperatures

Place Temperature

Stations

Nearby Weather Stations

Station Location Temp. Windchill Dew Point Humidity Wind Precip. Elev Updated Type
                   

Watches & Warnings

There are currently no watches in effect.